sensor_id;sensor_type;location;lat;lon;timestamp;temperature;humidity
23827;DHT22;12094;50.822;4.376;2023-04-25T00:00:46;9.90;99.90
23827;DHT22;12094;50.822;4.376;2023-04-25T00:03:17;9.90;99.90
23827;DHT22;12094;50.822;4.376;2023-04-25T00:05:46;9.90;99.90
23827;DHT22;12094;50.822;4.376;2023-04-25T00:08:20;9.80;99.90
23827;DHT22;12094;50.822;4.376;2023-04-25T00:10:48;9.90;99.90
23827;DHT22;12094;50.822;4.376;2023-04-25T00:13:20;9.90;99.90
23827;DHT22;12094;50.822;4.376;2023-04-25T00:15:52;9.90;99.90
23827;DHT22;12094;50.822;4.376;2023-04-25T00:18:21;10.00;99.90
23827;DHT22;12094;50.822;4.376;2023-04-25T00:20:51;10.00;99.90
23827;DHT22;12094;50.822;4.376;2023-04-25T00:23:19;10.00;99.90
23827;DHT22;12094;50.822;4.376;2023-04-25T00:25:51;9.90;99.90
23827;DHT22;12094;50.822;4.376;2023-04-25T00:28:24;9.80;99.90
23827;DHT22;12094;50.822;4.376;2023-04-25T00:30:56;9.90;99.90
23827;DHT22;12094;50.822;4.376;2023-04-25T00:34:08;9.90;99.90
23827;DHT22;12094;50.822;4.376;2023-04-25T00:37:35;10.00;99.90
23827;DHT22;12094;50.822;4.376;2023-04-25T00:40:11;10.00;99.90
23827;DHT22;12094;50.822;4.376;2023-04-25T00:42:42;10.00;99.90
23827;DHT22;12094;50.822;4.376;2023-04-25T00:45:13;9.90;99.90
23827;DHT22;12094;50.822;4.376;2023-04-25T00:47:43;9.90;99.90
23827;DHT22;12094;50.822;4.376;2023-04-25T00:50:14;9.90;99.90
23827;DHT22;12094;50.822;4.376;2023-04-25T00:52:45;9.80;99.90
23827;DHT22;12094;50.822;4.376;2023-04-25T00:55:12;9.80;99.90
23827;DHT22;12094;50.822;4.376;2023-04-25T00:57:44;9.80;99.90
23827;DHT22;12094;50.822;4.376;2023-04-25T01:00:13;9.70;99.90
23827;DHT22;12094;50.822;4.376;2023-04-25T01:02:44;9.70;99.90
23827;DHT22;12094;50.822;4.376;2023-04-25T01:05:20;9.60;99.90
23827;DHT22;12094;50.822;4.376;2023-04-25T01:07:48;9.60;99.90
23827;DHT22;12094;50.822;4.376;2023-04-25T01:10:30;9.70;99.90
23827;DHT22;12094;50.822;4.376;2023-04-25T01:13:00;9.70;99.90
23827;DHT22;12094;50.822;4.376;2023-04-25T01:15:54;9.60;99.90
23827;DHT22;12094;50.822;4.376;2023-04-25T01:18:26;9.70;99.90
23827;DHT22;12094;50.822;4.376;2023-04-25T01:20:55;9.70;99.90
23827;DHT22;12094;50.822;4.376;2023-04-25T01:23:23;9.80;99.90
23827;DHT22;12094;50.822;4.376;2023-04-25T01:25:53;9.80;99.90
23827;DHT22;12094;50.822;4.376;2023-04-25T01:28:22;9.70;99.90
23827;DHT22;12094;50.822;4.376;2023-04-25T01:30:59;9.60;99.90
23827;DHT22;12094;50.822;4.376;2023-04-25T01:33:40;9.50;99.90
23827;DHT22;12094;50.822;4.376;2023-04-25T01:36:08;9.50;99.90
23827;DHT22;12094;50.822;4.376;2023-04-25T01:38:37;9.40;99.90
23827;DHT22;12094;50.822;4.376;2023-04-25T01:41:11;9.50;99.90
23827;DHT22;12094;50.822;4.376;2023-04-25T01:43:38;9.40;99.90
23827;DHT22;12094;50.822;4.376;2023-04-25T01:46:06;9.40;99.90
23827;DHT22;12094;50.822;4.376;2023-04-25T01:48:36;9.40;99.90
23827;DHT22;12094;50.822;4.376;2023-04-25T01:51:07;9.30;99.90
23827;DHT22;12094;50.822;4.376;2023-04-25T01:53:50;9.20;99.90
23827;DHT22;12094;50.822;4.376;2023-04-25T01:56:51;9.20;99.90
23827;DHT22;12094;50.822;4.376;2023-04-25T01:59:33;9.20;99.90
23827;DHT22;12094;50.822;4.376;2023-04-25T02:02:23;9.20;99.90
23827;DHT22;12094;50.822;4.376;2023-04-25T02:04:56;9.20;99.90
23827;DHT22;12094;50.822;4.376;2023-04-25T02:07:27;9.20;99.90
23827;DHT22;12094;50.822;4.376;2023-04-25T02:10:13;9.20;99.90
23827;DHT22;12094;50.822;4.376;2023-04-25T02:12:53;9.20;99.90
23827;DHT22;12094;50.822;4.376;2023-04-25T02:16:02;9.20;99.90
23827;DHT22;12094;50.822;4.376;2023-04-25T02:18:56;9.10;99.90
23827;DHT22;12094;50.822;4.376;2023-04-25T02:21:46;9.00;99.90
23827;DHT22;12094;50.822;4.376;2023-04-25T02:24:17;9.00;99.90
23827;DHT22;12094;50.822;4.376;2023-04-25T02:26:45;9.00;99.90
23827;DHT22;12094;50.822;4.376;2023-04-25T02:29:17;9.00;99.90
23827;DHT22;12094;50.822;4.376;2023-04-25T02:31:50;9.00;99.90
23827;DHT22;12094;50.822;4.376;2023-04-25T02:34:20;9.00;99.90
23827;DHT22;12094;50.822;4.376;2023-04-25T02:36:49;9.10;99.90
23827;DHT22;12094;50.822;4.376;2023-04-25T02:39:20;9.10;99.90
23827;DHT22;12094;50.822;4.376;2023-04-25T02:42:04;9.00;99.90
23827;DHT22;12094;50.822;4.376;2023-04-25T02:49:21;9.10;99.90
23827;DHT22;12094;50.822;4.376;2023-04-25T02:52:25;9.00;99.90
23827;DHT22;12094;50.822;4.376;2023-04-25T02:55:49;9.10;99.90
23827;DHT22;12094;50.822;4.376;2023-04-25T03:02:46;9.10;99.90
23827;DHT22;12094;50.822;4.376;2023-04-25T03:05:29;9.20;99.90
23827;DHT22;12094;50.822;4.376;2023-04-25T03:08:00;9.10;99.90
23827;DHT22;12094;50.822;4.376;2023-04-25T03:10:32;9.20;99.90
23827;DHT22;12094;50.822;4.376;2023-04-25T03:13:06;9.20;99.90
23827;DHT22;12094;50.822;4.376;2023-04-25T03:15:37;9.20;99.90
23827;DHT22;12094;50.822;4.376;2023-04-25T03:18:08;9.10;99.90
23827;DHT22;12094;50.822;4.376;2023-04-25T03:20:36;9.00;99.90
23827;DHT22;12094;50.822;4.376;2023-04-25T03:23:31;9.00;99.90
23827;DHT22;12094;50.822;4.376;2023-04-25T03:25:59;9.00;99.90
23827;DHT22;12094;50.822;4.376;2023-04-25T03:28:28;8.90;99.90
23827;DHT22;12094;50.822;4.376;2023-04-25T03:30:57;8.90;99.90
23827;DHT22;12094;50.822;4.376;2023-04-25T03:33:25;8.90;99.90
23827;DHT22;12094;50.822;4.376;2023-04-25T03:35:53;8.80;99.90
23827;DHT22;12094;50.822;4.376;2023-04-25T03:38:21;8.70;99.90
23827;DHT22;12094;50.822;4.376;2023-04-25T03:40:50;8.70;99.90
23827;DHT22;12094;50.822;4.376;2023-04-25T03:43:24;8.70;99.90
23827;DHT22;12094;50.822;4.376;2023-04-25T03:46:07;8.80;99.90
23827;DHT22;12094;50.822;4.376;2023-04-25T03:49:27;8.70;99.90
23827;DHT22;12094;50.822;4.376;2023-04-25T03:52:17;8.60;99.90
23827;DHT22;12094;50.822;4.376;2023-04-25T03:55:22;8.70;99.90
23827;DHT22;12094;50.822;4.376;2023-04-25T03:58:22;8.70;99.90
23827;DHT22;12094;50.822;4.376;2023-04-25T04:01:24;8.80;99.90
23827;DHT22;12094;50.822;4.376;2023-04-25T04:07:16;8.70;99.90
23827;DHT22;12094;50.822;4.376;2023-04-25T04:10:00;8.80;99.90
23827;DHT22;12094;50.822;4.376;2023-04-25T04:13:04;8.80;99.90
23827;DHT22;12094;50.822;4.376;2023-04-25T04:16:05;8.70;99.90
23827;DHT22;12094;50.822;4.376;2023-04-25T04:19:23;8.90;99.90
23827;DHT22;12094;50.822;4.376;2023-04-25T04:22:31;8.80;99.90
23827;DHT22;12094;50.822;4.376;2023-04-25T04:37:17;8.80;99.90
23827;DHT22;12094;50.822;4.376;2023-04-25T04:39:53;8.80;99.90
23827;DHT22;12094;50.822;4.376;2023-04-25T04:42:27;8.80;99.90
23827;DHT22;12094;50.822;4.376;2023-04-25T04:45:14;8.80;99.90
23827;DHT22;12094;50.822;4.376;2023-04-25T04:47:47;8.90;99.90
23827;DHT22;12094;50.822;4.376;2023-04-25T04:50:36;8.90;99.90
23827;DHT22;12094;50.822;4.376;2023-04-25T04:53:19;8.90;99.90
23827;DHT22;12094;50.822;4.376;2023-04-25T04:56:03;9.00;99.90
23827;DHT22;12094;50.822;4.376;2023-04-25T04:59:01;8.80;99.90
23827;DHT22;12094;50.822;4.376;2023-04-25T05:01:56;8.80;99.90
23827;DHT22;12094;50.822;4.376;2023-04-25T05:04:48;8.60;99.90
23827;DHT22;12094;50.822;4.376;2023-04-25T05:07:35;8.60;99.90
23827;DHT22;12094;50.822;4.376;2023-04-25T05:10:23;8.40;99.90
23827;DHT22;12094;50.822;4.376;2023-04-25T05:13:05;8.50;99.90
23827;DHT22;12094;50.822;4.376;2023-04-25T05:15:34;8.50;99.90
23827;DHT22;12094;50.822;4.376;2023-04-25T05:18:17;8.40;99.90
23827;DHT22;12094;50.822;4.376;2023-04-25T05:20:48;8.30;99.90
23827;DHT22;12094;50.822;4.376;2023-04-25T05:23:48;8.40;99.90
23827;DHT22;12094;50.822;4.376;2023-04-25T05:26:55;8.50;99.90
23827;DHT22;12094;50.822;4.376;2023-04-25T05:33:52;8.40;99.90
23827;DHT22;12094;50.822;4.376;2023-04-25T05:36:24;8.40;99.90
23827;DHT22;12094;50.822;4.376;2023-04-25T05:39:10;8.50;99.90
23827;DHT22;12094;50.822;4.376;2023-04-25T05:42:15;8.40;99.90
23827;DHT22;12094;50.822;4.376;2023-04-25T05:45:09;8.40;99.90
23827;DHT22;12094;50.822;4.376;2023-04-25T05:48:01;8.40;99.90
23827;DHT22;12094;50.822;4.376;2023-04-25T05:50:44;8.50;99.90
23827;DHT22;12094;50.822;4.376;2023-04-25T05:53:44;8.40;99.90
23827;DHT22;12094;50.822;4.376;2023-04-25T05:56:16;8.50;99.90
23827;DHT22;12094;50.822;4.376;2023-04-25T05:58:52;8.50;99.90
23827;DHT22;12094;50.822;4.376;2023-04-25T06:01:22;8.60;99.90
23827;DHT22;12094;50.822;4.376;2023-04-25T06:03:53;8.70;99.90
23827;DHT22;12094;50.822;4.376;2023-04-25T06:06:24;8.70;99.90
23827;DHT22;12094;50.822;4.376;2023-04-25T06:08:56;8.70;99.90
23827;DHT22;12094;50.822;4.376;2023-04-25T06:11:24;8.80;99.90
23827;DHT22;12094;50.822;4.376;2023-04-25T06:13:53;8.80;99.90
23827;DHT22;12094;50.822;4.376;2023-04-25T06:16:26;8.90;99.90
23827;DHT22;12094;50.822;4.376;2023-04-25T06:19:00;9.00;99.90
23827;DHT22;12094;50.822;4.376;2023-04-25T06:21:29;9.10;99.90
23827;DHT22;12094;50.822;4.376;2023-04-25T06:23:58;9.20;99.90
23827;DHT22;12094;50.822;4.376;2023-04-25T06:26:27;9.20;99.90
23827;DHT22;12094;50.822;4.376;2023-04-25T06:29:07;9.30;99.90
23827;DHT22;12094;50.822;4.376;2023-04-25T06:31:39;9.30;99.90
23827;DHT22;12094;50.822;4.376;2023-04-25T06:34:12;9.30;99.90
23827;DHT22;12094;50.822;4.376;2023-04-25T06:36:42;9.20;99.90
23827;DHT22;12094;50.822;4.376;2023-04-25T06:39:17;9.20;99.90
23827;DHT22;12094;50.822;4.376;2023-04-25T06:41:52;9.20;99.90
23827;DHT22;12094;50.822;4.376;2023-04-25T06:44:44;9.20;99.90
23827;DHT22;12094;50.822;4.376;2023-04-25T06:47:21;9.10;99.90
23827;DHT22;12094;50.822;4.376;2023-04-25T06:50:00;9.20;99.90
23827;DHT22;12094;50.822;4.376;2023-04-25T06:52:30;9.20;99.90
23827;DHT22;12094;50.822;4.376;2023-04-25T06:54:59;9.10;99.90
23827;DHT22;12094;50.822;4.376;2023-04-25T06:57:55;9.00;99.90
23827;DHT22;12094;50.822;4.376;2023-04-25T07:03:54;9.00;99.90
23827;DHT22;12094;50.822;4.376;2023-04-25T07:06:30;9.10;99.90
23827;DHT22;12094;50.822;4.376;2023-04-25T07:08:59;9.10;99.90
23827;DHT22;12094;50.822;4.376;2023-04-25T07:11:28;9.10;99.90
23827;DHT22;12094;50.822;4.376;2023-04-25T07:13:56;9.20;99.90
23827;DHT22;12094;50.822;4.376;2023-04-25T07:19:10;9.20;99.90
23827;DHT22;12094;50.822;4.376;2023-04-25T07:22:03;9.30;99.90
23827;DHT22;12094;50.822;4.376;2023-04-25T07:24:35;9.20;99.90
23827;DHT22;12094;50.822;4.376;2023-04-25T07:27:08;9.30;99.90
23827;DHT22;12094;50.822;4.376;2023-04-25T07:29:55;9.50;99.90
23827;DHT22;12094;50.822;4.376;2023-04-25T07:32:52;9.40;99.90
23827;DHT22;12094;50.822;4.376;2023-04-25T07:35:39;9.50;99.90
23827;DHT22;12094;50.822;4.376;2023-04-25T07:38:11;9.60;99.90
23827;DHT22;12094;50.822;4.376;2023-04-25T07:40:54;9.70;99.90
23827;DHT22;12094;50.822;4.376;2023-04-25T07:43:41;9.90;99.90
23827;DHT22;12094;50.822;4.376;2023-04-25T07:46:19;9.90;99.90
23827;DHT22;12094;50.822;4.376;2023-04-25T07:48:53;9.90;99.90
23827;DHT22;12094;50.822;4.376;2023-04-25T07:51:27;10.00;99.90
23827;DHT22;12094;50.822;4.376;2023-04-25T07:54:25;9.90;99.90
23827;DHT22;12094;50.822;4.376;2023-04-25T07:57:00;10.00;99.90
23827;DHT22;12094;50.822;4.376;2023-04-25T07:59:35;10.00;99.90
23827;DHT22;12094;50.822;4.376;2023-04-25T08:02:05;10.10;99.90
23827;DHT22;12094;50.822;4.376;2023-04-25T08:04:35;10.20;99.90
23827;DHT22;12094;50.822;4.376;2023-04-25T08:07:13;10.20;99.90
23827;DHT22;12094;50.822;4.376;2023-04-25T08:10:03;10.30;99.90
23827;DHT22;12094;50.822;4.376;2023-04-25T08:12:37;10.40;99.90
23827;DHT22;12094;50.822;4.376;2023-04-25T08:15:08;10.30;99.90
23827;DHT22;12094;50.822;4.376;2023-04-25T08:17:39;10.50;99.90
23827;DHT22;12094;50.822;4.376;2023-04-25T08:20:08;10.60;99.90
23827;DHT22;12094;50.822;4.376;2023-04-25T08:22:38;10.70;99.90
23827;DHT22;12094;50.822;4.376;2023-04-25T08:25:32;10.70;99.90
23827;DHT22;12094;50.822;4.376;2023-04-25T08:28:01;10.60;99.90
23827;DHT22;12094;50.822;4.376;2023-04-25T08:30:33;10.60;99.90
23827;DHT22;12094;50.822;4.376;2023-04-25T08:33:05;10.70;99.90
23827;DHT22;12094;50.822;4.376;2023-04-25T08:35:49;10.60;99.90
23827;DHT22;12094;50.822;4.376;2023-04-25T08:38:19;10.70;99.90
23827;DHT22;12094;50.822;4.376;2023-04-25T08:40:51;10.60;99.90
23827;DHT22;12094;50.822;4.376;2023-04-25T08:43:20;10.70;99.90
23827;DHT22;12094;50.822;4.376;2023-04-25T08:45:53;10.60;99.90
23827;DHT22;12094;50.822;4.376;2023-04-25T08:48:40;10.60;99.90
23827;DHT22;12094;50.822;4.376;2023-04-25T08:51:23;10.60;99.90
23827;DHT22;12094;50.822;4.376;2023-04-25T08:54:10;10.60;99.90
23827;DHT22;12094;50.822;4.376;2023-04-25T08:56:47;10.50;99.90
23827;DHT22;12094;50.822;4.376;2023-04-25T08:59:17;10.40;99.90
23827;DHT22;12094;50.822;4.376;2023-04-25T09:01:45;10.70;99.90
23827;DHT22;12094;50.822;4.376;2023-04-25T09:04:13;10.90;99.90
23827;DHT22;12094;50.822;4.376;2023-04-25T09:06:53;10.90;99.90
23827;DHT22;12094;50.822;4.376;2023-04-25T09:09:20;10.90;99.90
23827;DHT22;12094;50.822;4.376;2023-04-25T09:11:54;11.00;99.90
23827;DHT22;12094;50.822;4.376;2023-04-25T09:14:24;11.00;99.90
23827;DHT22;12094;50.822;4.376;2023-04-25T09:17:13;11.10;99.90
23827;DHT22;12094;50.822;4.376;2023-04-25T09:19:52;11.20;99.90
23827;DHT22;12094;50.822;4.376;2023-04-25T09:22:28;11.20;99.90
23827;DHT22;12094;50.822;4.376;2023-04-25T09:25:02;11.00;99.90
23827;DHT22;12094;50.822;4.376;2023-04-25T09:27:32;11.00;99.90
23827;DHT22;12094;50.822;4.376;2023-04-25T09:30:16;11.00;99.90
23827;DHT22;12094;50.822;4.376;2023-04-25T09:33:10;10.80;99.90
23827;DHT22;12094;50.822;4.376;2023-04-25T09:35:45;10.80;99.90
23827;DHT22;12094;50.822;4.376;2023-04-25T09:38:25;11.00;99.90
23827;DHT22;12094;50.822;4.376;2023-04-25T09:41:12;11.10;99.90
23827;DHT22;12094;50.822;4.376;2023-04-25T09:43:49;10.70;99.90
23827;DHT22;12094;50.822;4.376;2023-04-25T09:46:23;10.50;99.90
23827;DHT22;12094;50.822;4.376;2023-04-25T09:49:06;10.60;99.90
23827;DHT22;12094;50.822;4.376;2023-04-25T09:51:56;10.70;99.90
23827;DHT22;12094;50.822;4.376;2023-04-25T09:54:32;10.70;99.90
23827;DHT22;12094;50.822;4.376;2023-04-25T09:57:23;10.70;99.90
23827;DHT22;12094;50.822;4.376;2023-04-25T10:00:02;10.80;99.90
23827;DHT22;12094;50.822;4.376;2023-04-25T10:02:47;10.80;99.90
23827;DHT22;12094;50.822;4.376;2023-04-25T10:06:07;10.90;99.90
23827;DHT22;12094;50.822;4.376;2023-04-25T10:08:37;11.10;99.90
23827;DHT22;12094;50.822;4.376;2023-04-25T10:11:10;11.30;99.90
23827;DHT22;12094;50.822;4.376;2023-04-25T10:13:55;11.50;99.90
23827;DHT22;12094;50.822;4.376;2023-04-25T10:16:24;11.60;99.90
23827;DHT22;12094;50.822;4.376;2023-04-25T10:18:54;11.80;99.90
23827;DHT22;12094;50.822;4.376;2023-04-25T10:21:24;11.90;99.90
23827;DHT22;12094;50.822;4.376;2023-04-25T10:24:20;11.70;99.90
23827;DHT22;12094;50.822;4.376;2023-04-25T10:27:03;11.60;99.90
23827;DHT22;12094;50.822;4.376;2023-04-25T10:30:09;11.70;99.90
23827;DHT22;12094;50.822;4.376;2023-04-25T10:32:45;11.70;99.90
23827;DHT22;12094;50.822;4.376;2023-04-25T10:35:26;11.90;99.90
23827;DHT22;12094;50.822;4.376;2023-04-25T10:38:06;12.00;99.90
23827;DHT22;12094;50.822;4.376;2023-04-25T10:40:42;12.30;99.90
23827;DHT22;12094;50.822;4.376;2023-04-25T10:43:48;12.40;99.90
23827;DHT22;12094;50.822;4.376;2023-04-25T10:46:23;12.60;99.90
23827;DHT22;12094;50.822;4.376;2023-04-25T10:49:01;12.70;99.90
23827;DHT22;12094;50.822;4.376;2023-04-25T10:51:34;12.80;99.90
23827;DHT22;12094;50.822;4.376;2023-04-25T10:54:24;12.80;99.90
23827;DHT22;12094;50.822;4.376;2023-04-25T10:57:06;12.70;99.90
23827;DHT22;12094;50.822;4.376;2023-04-25T11:00:04;12.50;99.90
23827;DHT22;12094;50.822;4.376;2023-04-25T11:10:29;11.80;99.90
23827;DHT22;12094;50.822;4.376;2023-04-25T11:13:00;11.60;99.90
23827;DHT22;12094;50.822;4.376;2023-04-25T11:15:51;11.40;99.90
23827;DHT22;12094;50.822;4.376;2023-04-25T11:18:44;11.00;99.90
23827;DHT22;12094;50.822;4.376;2023-04-25T11:21:29;10.60;99.90
23827;DHT22;12094;50.822;4.376;2023-04-25T11:24:05;10.40;99.90
23827;DHT22;12094;50.822;4.376;2023-04-25T11:26:34;10.50;99.90
23827;DHT22;12094;50.822;4.376;2023-04-25T11:29:09;10.70;99.90
23827;DHT22;12094;50.822;4.376;2023-04-25T11:31:39;10.80;99.90
23827;DHT22;12094;50.822;4.376;2023-04-25T11:34:16;11.10;99.90
23827;DHT22;12094;50.822;4.376;2023-04-25T11:36:46;11.50;99.90
23827;DHT22;12094;50.822;4.376;2023-04-25T11:39:20;11.60;99.90
23827;DHT22;12094;50.822;4.376;2023-04-25T11:42:06;11.70;99.90
23827;DHT22;12094;50.822;4.376;2023-04-25T11:44:41;12.00;99.90
23827;DHT22;12094;50.822;4.376;2023-04-25T11:47:10;12.10;99.90
23827;DHT22;12094;50.822;4.376;2023-04-25T11:49:55;12.20;99.90
23827;DHT22;12094;50.822;4.376;2023-04-25T11:52:24;12.20;99.90
23827;DHT22;12094;50.822;4.376;2023-04-25T11:54:58;12.30;99.90
23827;DHT22;12094;50.822;4.376;2023-04-25T11:57:49;12.30;99.90
23827;DHT22;12094;50.822;4.376;2023-04-25T12:07:50;13.50;99.90
23827;DHT22;12094;50.822;4.376;2023-04-25T12:10:20;14.10;99.90
23827;DHT22;12094;50.822;4.376;2023-04-25T12:12:49;13.80;99.90
23827;DHT22;12094;50.822;4.376;2023-04-25T12:15:26;13.90;99.90
23827;DHT22;12094;50.822;4.376;2023-04-25T12:18:10;13.90;99.90
23827;DHT22;12094;50.822;4.376;2023-04-25T12:20:37;13.60;99.90
23827;DHT22;12094;50.822;4.376;2023-04-25T12:27:10;13.00;99.90
23827;DHT22;12094;50.822;4.376;2023-04-25T12:34:04;12.90;99.90
23827;DHT22;12094;50.822;4.376;2023-04-25T12:40:34;12.20;99.90
23827;DHT22;12094;50.822;4.376;2023-04-25T12:47:47;12.00;99.90
23827;DHT22;12094;50.822;4.376;2023-04-25T12:50:19;11.90;99.90
23827;DHT22;12094;50.822;4.376;2023-04-25T13:02:58;14.40;99.90
23827;DHT22;12094;50.822;4.376;2023-04-25T13:05:28;16.10;99.90
23827;DHT22;12094;50.822;4.376;2023-04-25T13:07:59;16.20;98.30
23827;DHT22;12094;50.822;4.376;2023-04-25T13:10:27;15.30;98.30
23827;DHT22;12094;50.822;4.376;2023-04-25T13:12:54;14.60;99.90
23827;DHT22;12094;50.822;4.376;2023-04-25T13:15:26;14.10;99.90
23827;DHT22;12094;50.822;4.376;2023-04-25T13:17:56;13.70;99.90
23827;DHT22;12094;50.822;4.376;2023-04-25T13:20:24;13.10;99.90
23827;DHT22;12094;50.822;4.376;2023-04-25T13:22:55;12.90;99.90
23827;DHT22;12094;50.822;4.376;2023-04-25T13:25:22;12.70;99.90
23827;DHT22;12094;50.822;4.376;2023-04-25T13:27:58;13.20;99.90
23827;DHT22;12094;50.822;4.376;2023-04-25T13:30:27;13.80;99.90
23827;DHT22;12094;50.822;4.376;2023-04-25T13:32:54;14.40;99.90
23827;DHT22;12094;50.822;4.376;2023-04-25T13:35:27;14.60;99.90
23827;DHT22;12094;50.822;4.376;2023-04-25T13:37:55;14.50;99.70
23827;DHT22;12094;50.822;4.376;2023-04-25T13:40:31;14.70;98.60
23827;DHT22;12094;50.822;4.376;2023-04-25T13:43:03;15.20;97.70
23827;DHT22;12094;50.822;4.376;2023-04-25T13:45:31;15.70;96.70
23827;DHT22;12094;50.822;4.376;2023-04-25T13:48:01;16.20;95.60
23827;DHT22;12094;50.822;4.376;2023-04-25T13:53:49;17.30;93.10
23827;DHT22;12094;50.822;4.376;2023-04-25T13:56:18;17.60;92.10
23827;DHT22;12094;50.822;4.376;2023-04-25T13:58:50;17.90;90.30
23827;DHT22;12094;50.822;4.376;2023-04-25T14:01:18;17.20;90.20
23827;DHT22;12094;50.822;4.376;2023-04-25T14:03:48;16.60;92.50
23827;DHT22;12094;50.822;4.376;2023-04-25T14:06:17;16.10;93.90
23827;DHT22;12094;50.822;4.376;2023-04-25T14:09:20;15.80;94.90
23827;DHT22;12094;50.822;4.376;2023-04-25T14:11:55;15.40;95.70
23827;DHT22;12094;50.822;4.376;2023-04-25T14:14:32;15.10;95.60
23827;DHT22;12094;50.822;4.376;2023-04-25T14:17:02;15.40;95.30
23827;DHT22;12094;50.822;4.376;2023-04-25T14:19:36;15.10;95.90
23827;DHT22;12094;50.822;4.376;2023-04-25T14:22:14;14.90;95.20
23827;DHT22;12094;50.822;4.376;2023-04-25T14:24:51;14.80;95.60
23827;DHT22;12094;50.822;4.376;2023-04-25T14:27:20;14.60;94.80
23827;DHT22;12094;50.822;4.376;2023-04-25T14:29:47;14.20;95.20
23827;DHT22;12094;50.822;4.376;2023-04-25T14:32:19;14.10;95.30
23827;DHT22;12094;50.822;4.376;2023-04-25T14:34:49;14.00;94.40
23827;DHT22;12094;50.822;4.376;2023-04-25T14:37:20;13.70;94.80
23827;DHT22;12094;50.822;4.376;2023-04-25T14:39:53;13.50;95.30
23827;DHT22;12094;50.822;4.376;2023-04-25T14:42:22;13.20;95.40
23827;DHT22;12094;50.822;4.376;2023-04-25T14:44:53;13.30;95.90
23827;DHT22;12094;50.822;4.376;2023-04-25T14:47:22;13.40;95.90
23827;DHT22;12094;50.822;4.376;2023-04-25T14:50:00;13.70;95.20
23827;DHT22;12094;50.822;4.376;2023-04-25T14:52:29;13.90;94.80
23827;DHT22;12094;50.822;4.376;2023-04-25T14:54:56;14.10;93.70
23827;DHT22;12094;50.822;4.376;2023-04-25T14:57:24;14.30;93.20
23827;DHT22;12094;50.822;4.376;2023-04-25T14:59:52;14.40;93.50
23827;DHT22;12094;50.822;4.376;2023-04-25T15:02:21;14.40;94.60
23827;DHT22;12094;50.822;4.376;2023-04-25T15:04:49;14.10;94.80
23827;DHT22;12094;50.822;4.376;2023-04-25T15:07:18;13.70;94.90
23827;DHT22;12094;50.822;4.376;2023-04-25T15:10:00;13.20;96.00
23827;DHT22;12094;50.822;4.376;2023-04-25T15:12:49;13.00;96.40
23827;DHT22;12094;50.822;4.376;2023-04-25T15:15:19;12.70;97.10
23827;DHT22;12094;50.822;4.376;2023-04-25T15:17:53;12.70;97.50
23827;DHT22;12094;50.822;4.376;2023-04-25T15:20:25;12.70;98.20
23827;DHT22;12094;50.822;4.376;2023-04-25T15:22:53;12.70;98.60
23827;DHT22;12094;50.822;4.376;2023-04-25T15:25:23;12.90;97.90
23827;DHT22;12094;50.822;4.376;2023-04-25T15:27:51;13.20;98.10
23827;DHT22;12094;50.822;4.376;2023-04-25T15:30:27;13.50;97.40
23827;DHT22;12094;50.822;4.376;2023-04-25T15:32:57;13.40;96.70
23827;DHT22;12094;50.822;4.376;2023-04-25T15:35:26;13.20;96.70
23827;DHT22;12094;50.822;4.376;2023-04-25T15:37:56;12.90;96.50
23827;DHT22;12094;50.822;4.376;2023-04-25T15:40:27;12.80;96.60
23827;DHT22;12094;50.822;4.376;2023-04-25T15:42:59;12.70;96.80
23827;DHT22;12094;50.822;4.376;2023-04-25T15:45:29;12.60;97.00
23827;DHT22;12094;50.822;4.376;2023-04-25T15:48:00;12.50;96.80
23827;DHT22;12094;50.822;4.376;2023-04-25T15:50:29;12.50;97.30
23827;DHT22;12094;50.822;4.376;2023-04-25T15:53:15;12.60;97.10
23827;DHT22;12094;50.822;4.376;2023-04-25T15:55:43;12.60;97.20
23827;DHT22;12094;50.822;4.376;2023-04-25T15:58:11;12.50;97.90
23827;DHT22;12094;50.822;4.376;2023-04-25T16:00:39;12.50;98.60
23827;DHT22;12094;50.822;4.376;2023-04-25T16:03:08;12.40;99.10
23827;DHT22;12094;50.822;4.376;2023-04-25T16:05:39;12.40;99.50
23827;DHT22;12094;50.822;4.376;2023-04-25T16:08:07;12.30;99.10
23827;DHT22;12094;50.822;4.376;2023-04-25T16:10:37;12.30;99.00
23827;DHT22;12094;50.822;4.376;2023-04-25T16:13:08;12.30;98.90
23827;DHT22;12094;50.822;4.376;2023-04-25T16:15:38;12.20;98.70
23827;DHT22;12094;50.822;4.376;2023-04-25T16:18:21;12.10;98.90
23827;DHT22;12094;50.822;4.376;2023-04-25T16:20:53;12.00;99.50
23827;DHT22;12094;50.822;4.376;2023-04-25T16:23:22;11.90;99.70
23827;DHT22;12094;50.822;4.376;2023-04-25T16:25:52;11.80;99.90
23827;DHT22;12094;50.822;4.376;2023-04-25T16:29:36;11.80;99.90
23827;DHT22;12094;50.822;4.376;2023-04-25T16:32:14;11.80;99.90
23827;DHT22;12094;50.822;4.376;2023-04-25T16:34:58;11.80;99.90
23827;DHT22;12094;50.822;4.376;2023-04-25T16:37:29;11.70;99.90
23827;DHT22;12094;50.822;4.376;2023-04-25T16:40:00;11.80;99.90
23827;DHT22;12094;50.822;4.376;2023-04-25T16:42:29;11.80;99.90
23827;DHT22;12094;50.822;4.376;2023-04-25T16:44:56;11.90;99.90
23827;DHT22;12094;50.822;4.376;2023-04-25T16:47:49;12.00;99.90
23827;DHT22;12094;50.822;4.376;2023-04-25T16:50:23;12.10;99.80
23827;DHT22;12094;50.822;4.376;2023-04-25T16:52:53;12.20;99.70
23827;DHT22;12094;50.822;4.376;2023-04-25T16:55:38;12.30;99.90
23827;DHT22;12094;50.822;4.376;2023-04-25T16:58:19;12.40;98.70
23827;DHT22;12094;50.822;4.376;2023-04-25T17:01:07;12.40;98.40
23827;DHT22;12094;50.822;4.376;2023-04-25T17:03:58;12.20;97.90
23827;DHT22;12094;50.822;4.376;2023-04-25T17:06:40;12.00;97.30
23827;DHT22;12094;50.822;4.376;2023-04-25T17:09:08;11.90;98.40
23827;DHT22;12094;50.822;4.376;2023-04-25T17:11:38;11.90;99.50
23827;DHT22;12094;50.822;4.376;2023-04-25T17:14:06;12.00;99.90
23827;DHT22;12094;50.822;4.376;2023-04-25T17:16:49;12.10;99.90
23827;DHT22;12094;50.822;4.376;2023-04-25T17:19:19;12.00;99.90
23827;DHT22;12094;50.822;4.376;2023-04-25T17:21:49;12.10;99.90
23827;DHT22;12094;50.822;4.376;2023-04-25T17:24:19;12.20;99.90
23827;DHT22;12094;50.822;4.376;2023-04-25T17:26:49;12.20;99.90
23827;DHT22;12094;50.822;4.376;2023-04-25T17:29:19;12.20;99.90
23827;DHT22;12094;50.822;4.376;2023-04-25T17:31:49;12.00;99.90
23827;DHT22;12094;50.822;4.376;2023-04-25T17:34:16;11.80;99.90
23827;DHT22;12094;50.822;4.376;2023-04-25T17:36:46;11.70;99.90
23827;DHT22;12094;50.822;4.376;2023-04-25T17:39:17;11.50;99.90
23827;DHT22;12094;50.822;4.376;2023-04-25T17:41:51;11.20;99.90
23827;DHT22;12094;50.822;4.376;2023-04-25T17:44:20;11.10;99.90
23827;DHT22;12094;50.822;4.376;2023-04-25T17:46:47;11.00;99.90
23827;DHT22;12094;50.822;4.376;2023-04-25T17:49:14;11.00;99.90
23827;DHT22;12094;50.822;4.376;2023-04-25T17:51:41;11.00;99.90
23827;DHT22;12094;50.822;4.376;2023-04-25T17:54:10;10.90;99.90
23827;DHT22;12094;50.822;4.376;2023-04-25T17:56:38;10.90;99.90
23827;DHT22;12094;50.822;4.376;2023-04-25T17:59:09;10.90;99.90